createdAt,value
2022-09-13T00:01:54.196Z,5.4
2022-09-13T00:05:58.347Z,6.6
2022-09-13T00:14:09.950Z,6.4
2022-09-13T00:16:12.111Z,5.7
2022-09-13T00:18:14.209Z,6.1
2022-09-13T00:22:21.611Z,6.4
2022-09-13T00:24:23.711Z,6.2
2022-09-13T00:26:25.828Z,4.9
2022-09-13T00:28:27.975Z,6.1
2022-09-13T00:30:30.078Z,5.6
2022-09-13T00:32:32.196Z,6.5
2022-09-13T00:34:34.304Z,5.1
2022-09-13T00:36:39.580Z,5.6
2022-09-13T00:38:41.719Z,6.1
2022-09-13T00:43:12.501Z,6.3
2022-09-13T00:45:14.620Z,6.4
2022-09-13T00:47:16.744Z,5.7
2022-09-13T00:49:22.018Z,6.8
2022-09-13T00:51:24.138Z,6.2
2022-09-13T00:53:26.243Z,5.7
2022-09-13T00:55:28.370Z,6
2022-09-13T00:57:30.488Z,6.1
2022-09-13T00:59:32.618Z,6
2022-09-13T01:01:34.759Z,5.6
2022-09-13T01:03:40.005Z,6.2
2022-09-13T01:05:42.124Z,6.2
2022-09-13T01:11:48.509Z,5.3
2022-09-13T01:13:50.640Z,6.4
2022-09-13T01:15:52.729Z,6.1
2022-09-13T01:17:58.058Z,5.6
2022-09-13T01:20:00.177Z,6.3
2022-09-13T01:22:02.311Z,6.4
2022-09-13T01:24:04.405Z,6
2022-09-13T01:26:06.527Z,6.1
2022-09-13T01:28:08.645Z,6.5
2022-09-13T01:30:10.776Z,6.5
2022-09-13T01:34:18.246Z,7.2
2022-09-13T01:36:20.298Z,5.9
2022-09-13T01:39:25.050Z,7.1
2022-09-13T01:41:27.163Z,7.6
2022-09-13T01:43:29.296Z,6.1
2022-09-13T01:45:34.628Z,7.8
2022-09-13T01:47:36.689Z,6.4
2022-09-13T01:49:38.807Z,7.8
2022-09-13T01:51:40.945Z,8.3
2022-09-13T01:53:43.072Z,6.8
2022-09-13T01:55:45.183Z,8.1
2022-09-13T01:57:47.313Z,8.1
2022-09-13T01:59:52.566Z,8.3
2022-09-13T02:01:54.739Z,8.5
2022-09-13T02:03:56.813Z,9
2022-09-13T02:05:58.943Z,9.8
2022-09-13T02:08:01.058Z,9.6
2022-09-13T02:12:05.302Z,8.6
2022-09-13T02:14:10.576Z,9.4
2022-09-13T02:16:12.814Z,9
2022-09-13T02:18:14.808Z,11.1
2022-09-13T02:22:19.059Z,9.4
2022-09-13T02:24:21.163Z,8.5
2022-09-13T02:26:23.284Z,10.8
2022-09-13T02:28:28.568Z,9.2
2022-09-13T02:30:30.681Z,9.3
2022-09-13T02:33:35.468Z,8.9
2022-09-13T02:35:37.560Z,9
2022-09-13T02:37:39.661Z,7.2
2022-09-13T02:39:41.853Z,9.1
2022-09-13T02:41:47.074Z,8.3
2022-09-13T02:43:49.206Z,8.9
2022-09-13T02:45:51.410Z,8.4
2022-09-13T02:47:53.421Z,9
2022-09-13T02:49:55.532Z,7.1
2022-09-13T02:51:57.664Z,8.7
2022-09-13T02:53:59.783Z,8.5
2022-09-13T02:56:05.042Z,9.1
2022-09-13T02:58:07.161Z,8.3
2022-09-13T03:00:09.297Z,7.8
2022-09-13T03:04:13.649Z,8.1
2022-09-13T03:06:15.653Z,8.3
2022-09-13T03:08:17.747Z,7.6
2022-09-13T03:10:23.018Z,8.2
2022-09-13T03:12:25.132Z,8.8
2022-09-13T03:14:27.373Z,8.3
2022-09-13T03:24:40.986Z,9.9
2022-09-13T03:26:43.122Z,9
2022-09-13T03:29:47.870Z,8.8
2022-09-13T03:31:50.076Z,9.9
2022-09-13T03:37:59.489Z,10.5
2022-09-13T03:42:03.712Z,9.6
2022-09-13T03:44:05.876Z,8.8
2022-09-13T03:46:08.032Z,12.2
2022-09-13T03:48:10.103Z,11.2
2022-09-13T03:52:17.473Z,10.9
2022-09-13T03:54:19.597Z,12.1
2022-09-13T03:56:23.288Z,10.8
2022-09-13T03:58:25.368Z,10.1
2022-09-13T04:02:29.672Z,11.7
2022-09-13T04:04:31.727Z,11.5
2022-09-13T04:06:36.987Z,12.3
2022-09-13T04:08:39.120Z,11.1
2022-09-13T04:10:41.232Z,11.8
2022-09-13T04:12:43.359Z,12.1
2022-09-13T04:14:45.470Z,11.2
2022-09-13T04:16:47.645Z,12.6
2022-09-13T04:18:49.702Z,11.7
2022-09-13T04:20:54.983Z,11.9
2022-09-13T04:22:57.105Z,12.5
2022-09-13T04:25:02.413Z,12
2022-09-13T04:27:27.922Z,12.9
2022-09-13T04:29:30.027Z,11.4
2022-09-13T04:31:32.203Z,13.3
2022-09-13T04:33:37.403Z,12.7
2022-09-13T04:35:39.551Z,16.9
2022-09-13T04:37:41.650Z,16.2
2022-09-13T04:39:43.885Z,13.8
2022-09-13T04:41:45.892Z,14.6
2022-09-13T04:43:48.006Z,15.3
2022-09-13T04:45:50.213Z,15.5
2022-09-13T04:47:55.392Z,15.5
2022-09-13T04:49:57.515Z,16
2022-09-13T04:51:59.661Z,15.9
2022-09-13T04:54:01.789Z,14.3
2022-09-13T04:56:03.895Z,14.1
2022-09-13T04:58:06.014Z,13.8
2022-09-13T05:00:08.120Z,13.8
2022-09-13T05:02:13.472Z,14.4
2022-09-13T05:04:15.504Z,15.3
2022-09-13T05:06:17.641Z,15.1
2022-09-13T05:08:19.771Z,15.8
2022-09-13T05:10:22.000Z,14.7
2022-09-13T05:16:31.396Z,16.6
2022-09-13T05:18:33.510Z,16.2
2022-09-13T05:20:35.634Z,14.5
2022-09-13T05:21:38.273Z,15.3
2022-09-13T05:23:40.381Z,15.7
2022-09-13T05:25:42.502Z,15.2
2022-09-13T05:27:44.645Z,15.3
2022-09-13T05:29:49.905Z,15
2022-09-13T05:31:52.035Z,15.2
2022-09-13T05:37:58.385Z,16.2
2022-09-13T05:40:11.682Z,15.1
2022-09-13T05:42:02.648Z,13.9
2022-09-13T05:46:10.161Z,17.1
2022-09-13T05:48:12.175Z,15.7
2022-09-13T05:50:27.530Z,18.4
2022-09-13T05:54:18.523Z,16.1
2022-09-13T05:58:25.904Z,17.1
2022-09-13T06:02:30.171Z,19.3
2022-09-13T06:04:32.260Z,15.6
2022-09-13T06:08:36.502Z,15.2
2022-09-13T06:12:43.938Z,15.3
2022-09-13T06:17:50.785Z,15.7
2022-09-13T06:19:52.896Z,14.7
2022-09-13T06:21:55.031Z,14.9
2022-09-13T06:23:57.158Z,15.2
2022-09-13T06:26:02.416Z,14.7
2022-09-13T06:28:04.528Z,14
2022-09-13T06:32:08.777Z,14.2
2022-09-13T06:34:10.896Z,14.6
2022-09-13T06:36:13.007Z,14.8
2022-09-13T06:38:15.161Z,14.5
2022-09-13T06:40:24.533Z,13.9
2022-09-13T06:42:22.535Z,13.1
2022-09-13T06:44:24.662Z,13.9
2022-09-13T06:46:26.865Z,15.3
2022-09-13T06:48:28.915Z,15.1
2022-09-13T06:50:31.014Z,16
2022-09-13T06:52:33.159Z,15.5
2022-09-13T06:54:38.405Z,15.2
2022-09-13T06:56:40.539Z,15.2
2022-09-13T06:58:42.688Z,16
2022-09-13T07:00:44.811Z,13.3
2022-09-13T07:02:46.889Z,16.5
2022-09-13T07:04:49.037Z,15.6
2022-09-13T07:06:51.161Z,15.9
2022-09-13T07:08:56.413Z,15.9
2022-09-13T07:10:59.559Z,16.9
2022-09-13T07:13:00.647Z,17.7
2022-09-13T07:14:03.292Z,16.8
2022-09-13T07:16:05.432Z,17.3
2022-09-13T07:18:07.520Z,16.5
2022-09-13T07:20:09.655Z,17.2
2022-09-13T07:22:14.929Z,17.1
2022-09-13T07:24:17.075Z,18.8
2022-09-13T07:26:19.170Z,17.5
2022-09-13T07:28:22.636Z,18.7
2022-09-13T07:30:23.443Z,18.8
2022-09-13T07:32:25.537Z,19.1
2022-09-13T07:34:27.665Z,16.4
2022-09-13T07:36:32.932Z,18.3
2022-09-13T07:38:35.056Z,19
2022-09-13T07:44:41.409Z,17.4
2022-09-13T07:46:43.562Z,19.1
2022-09-13T07:48:45.654Z,18
2022-09-13T07:50:50.898Z,17.1
2022-09-13T07:52:53.007Z,17
2022-09-13T07:54:55.125Z,19.4
2022-09-13T07:56:57.255Z,15.2
2022-09-13T08:01:01.528Z,16.4
2022-09-13T08:05:08.879Z,15
2022-09-13T08:07:10.978Z,15.6
2022-09-13T08:09:13.081Z,13.2
2022-09-13T08:11:41.755Z,15.6
2022-09-13T08:17:51.250Z,11.8
2022-09-13T08:19:53.352Z,12.1
2022-09-13T08:21:55.482Z,11.7
2022-09-13T08:23:57.573Z,13.8
2022-09-13T08:25:59.697Z,11.6
2022-09-13T08:28:01.820Z,10.8
2022-09-13T08:30:03.915Z,9.9
2022-09-13T08:32:09.301Z,9.4
2022-09-13T08:34:11.428Z,9.7
2022-09-13T08:36:13.540Z,10.2
2022-09-13T08:38:15.633Z,9.6
2022-09-13T08:40:18.026Z,7.7
2022-09-13T08:42:19.860Z,8.4
2022-09-13T08:44:21.966Z,7.9
2022-09-13T08:46:27.250Z,7.1
2022-09-13T08:48:29.342Z,5.9
2022-09-13T08:50:31.458Z,6.8
2022-09-13T08:52:33.547Z,7.2
2022-09-13T08:54:35.659Z,6.5
2022-09-13T08:56:37.755Z,6.3
2022-09-13T08:58:39.868Z,5.7
2022-09-13T09:00:45.170Z,5.3
2022-09-13T09:02:47.332Z,4.7
2022-09-13T09:04:49.340Z,4.2
2022-09-13T09:05:51.987Z,3.3
2022-09-13T09:07:54.073Z,3.6
2022-09-13T09:11:58.273Z,2.8
2022-09-13T09:14:03.551Z,3.3
2022-09-13T09:16:05.688Z,4.2
2022-09-13T09:18:07.749Z,4.7
2022-09-13T09:20:09.863Z,3.6
2022-09-13T09:22:11.965Z,3.9
2022-09-13T09:24:14.061Z,2.9
2022-09-13T09:26:16.141Z,1.9
2022-09-13T09:28:21.406Z,2.1
2022-09-13T09:30:23.708Z,1.9
2022-09-13T09:32:25.620Z,1.8
2022-09-13T09:34:27.705Z,1.4
2022-09-13T09:36:29.811Z,1.6
2022-09-13T09:38:31.904Z,1.9
2022-09-13T09:40:34.100Z,1.1
2022-09-13T09:44:41.368Z,1.6
2022-09-13T09:46:43.465Z,2.1
2022-09-13T09:48:47.129Z,1.4
2022-09-13T09:50:49.194Z,1.8
2022-09-13T09:52:51.301Z,1.9
2022-09-13T09:54:53.401Z,31.4
2022-09-13T09:56:58.630Z,20.8
2022-09-13T09:59:00.749Z,9.7
2022-09-13T10:01:02.861Z,5.2
2022-09-13T10:02:05.487Z,3.3
2022-09-13T10:04:07.551Z,5.6
2022-09-13T10:06:09.636Z,2.9
2022-09-13T10:08:11.736Z,26.8
2022-09-13T10:10:17.004Z,15
2022-09-13T10:12:19.095Z,13.3
2022-09-13T10:14:21.201Z,7.4
2022-09-13T10:16:23.376Z,7.5
2022-09-13T10:18:43.305Z,7.3
2022-09-13T10:20:27.595Z,1.7
2022-09-13T10:24:34.820Z,4.2
2022-09-13T10:26:36.921Z,2.1
2022-09-13T10:28:39.047Z,4.2
2022-09-13T10:30:41.204Z,5.2
2022-09-13T10:32:43.214Z,9.6
2022-09-13T10:36:52.635Z,1.3
2022-09-13T10:38:52.646Z,1.2
2022-09-13T10:40:54.737Z,1.1
2022-09-13T10:42:56.835Z,1.5
2022-09-13T10:44:58.915Z,0.7
2022-09-13T10:47:00.978Z,0.9
2022-09-13T10:49:03.076Z,1.6
2022-09-13T10:51:05.205Z,2.2
2022-09-13T10:53:10.420Z,3.3
2022-09-13T10:55:12.498Z,2.1
2022-09-13T10:58:17.217Z,1.1
2022-09-13T11:04:23.575Z,1.3
2022-09-13T11:08:30.838Z,1.6
2022-09-13T11:16:39.251Z,1.3
2022-09-13T11:18:41.297Z,1
2022-09-13T11:20:46.534Z,0.8
2022-09-13T11:24:50.709Z,1.2
2022-09-13T11:26:52.810Z,1.4
2022-09-13T11:28:54.906Z,1.9
2022-09-13T11:30:56.984Z,2
2022-09-13T11:32:59.075Z,1.7
2022-09-13T11:35:04.321Z,1.4
2022-09-13T11:37:06.405Z,1
2022-09-13T11:39:08.499Z,0.9
2022-09-13T11:41:10.586Z,1
2022-09-13T11:43:12.703Z,0.6
2022-09-13T11:45:18.105Z,1.1
2022-09-13T11:49:22.118Z,0.6
2022-09-13T11:51:24.204Z,2.3
2022-09-13T11:53:29.935Z,5.3
2022-09-13T11:55:54.924Z,2.3
2022-09-13T11:57:57.017Z,5.1
2022-09-13T11:59:59.083Z,1.6
2022-09-13T12:02:04.446Z,8.3
2022-09-13T12:04:06.448Z,5.4
2022-09-13T12:06:08.530Z,3.9
2022-09-13T12:08:10.603Z,6.9
2022-09-13T12:10:12.688Z,1.7
2022-09-13T12:12:14.781Z,8.6
2022-09-13T12:14:16.860Z,1.9
2022-09-13T12:16:22.183Z,1.7
2022-09-13T12:18:24.164Z,0.7
2022-09-13T12:24:30.405Z,1.3
2022-09-13T12:26:32.495Z,1.4
2022-09-13T12:28:34.579Z,0.4
2022-09-13T12:30:39.822Z,0.7
2022-09-13T12:32:41.890Z,1
2022-09-13T12:34:43.989Z,1.2
2022-09-13T12:40:50.194Z,1
2022-09-13T12:42:52.292Z,0.9
2022-09-13T12:46:59.587Z,1.7
2022-09-13T12:49:01.688Z,1
2022-09-13T12:52:06.373Z,0.9
2022-09-13T12:54:08.441Z,0.9
2022-09-13T12:56:10.522Z,1.2
2022-09-13T12:58:15.774Z,1.1
2022-09-13T13:00:17.863Z,1.2
2022-09-13T13:02:20.012Z,0.9
2022-09-13T13:04:22.012Z,1.5
2022-09-13T13:06:24.083Z,1.2
2022-09-13T13:12:33.511Z,1.8
2022-09-13T13:14:35.588Z,2.9
2022-09-13T13:20:41.841Z,0.6
2022-09-13T13:26:51.227Z,0.9
2022-09-13T13:30:55.389Z,1
2022-09-13T13:33:02.158Z,1
2022-09-13T13:34:59.485Z,1.1
2022-09-13T13:37:01.562Z,0.6
2022-09-13T13:39:03.620Z,0.8
2022-09-13T13:41:12.772Z,1.4
2022-09-13T13:43:10.903Z,0.9
2022-09-13T13:46:15.592Z,0.9
2022-09-13T13:50:19.709Z,0.9
2022-09-13T13:52:21.736Z,1.2
2022-09-13T13:54:26.946Z,1.4
2022-09-13T13:56:29.000Z,1.1
2022-09-13T13:58:31.044Z,1.2
2022-09-13T14:00:33.075Z,1.6
2022-09-13T14:06:39.184Z,0.9
2022-09-13T14:08:44.434Z,0.9
2022-09-13T14:10:46.446Z,0.9
2022-09-13T14:12:48.469Z,1.7
2022-09-13T14:14:50.499Z,0.9
2022-09-13T14:16:52.563Z,1
2022-09-13T14:23:01.803Z,1.2
2022-09-13T14:27:09.266Z,1.5
2022-09-13T14:31:09.965Z,3.5
2022-09-13T14:33:11.965Z,14.8
2022-09-13T14:35:14.017Z,5
2022-09-13T14:37:19.197Z,5.2
2022-09-13T14:39:21.212Z,7.7
2022-09-13T14:41:23.242Z,4.2
2022-09-13T14:42:25.862Z,2.9
2022-09-13T14:44:28.921Z,1.5
2022-09-13T14:46:29.963Z,1.3
2022-09-13T14:48:31.921Z,1.5
2022-09-13T14:50:37.148Z,1.1
2022-09-13T14:52:39.169Z,0.8
2022-09-13T14:54:41.198Z,2
2022-09-13T14:56:43.215Z,1.2
2022-09-13T14:58:45.261Z,0.7
2022-09-13T15:00:47.346Z,0.7
2022-09-13T15:02:49.322Z,1
2022-09-13T15:04:54.579Z,1.5
2022-09-13T15:06:56.547Z,1.1
2022-09-13T15:08:58.566Z,1.1
2022-09-13T15:11:00.581Z,1
2022-09-13T15:13:02.600Z,1.6
2022-09-13T15:15:04.591Z,0.7
2022-09-13T15:17:06.635Z,0.9
2022-09-13T15:19:11.818Z,0.7
2022-09-13T15:21:13.841Z,1.9
2022-09-13T15:23:15.854Z,1.3
2022-09-13T15:25:17.853Z,1
2022-09-13T15:29:21.944Z,0.6
2022-09-13T15:42:02.964Z,4.1
2022-09-13T15:44:04.973Z,2
2022-09-13T15:46:10.214Z,11.4
2022-09-13T15:50:14.213Z,1.8
2022-09-13T15:52:16.205Z,1.1
2022-09-13T15:54:18.240Z,1.1
2022-09-13T15:56:20.258Z,1.5
2022-09-13T15:58:22.263Z,1.1
2022-09-13T16:00:27.560Z,1.1
2022-09-13T16:02:29.583Z,2.3
2022-09-13T16:04:31.501Z,1.7
2022-09-13T16:06:33.515Z,1
2022-09-13T16:08:35.552Z,2
2022-09-13T16:10:37.550Z,2.3
2022-09-13T16:12:39.572Z,2.9
2022-09-13T16:14:44.779Z,2.7
2022-09-13T16:16:46.860Z,1.7
2022-09-13T16:18:49.122Z,2.1
2022-09-13T16:22:52.899Z,2.5
2022-09-13T16:26:56.990Z,10.6
2022-09-13T16:29:02.229Z,2.7
2022-09-13T16:31:04.359Z,33.7
2022-09-13T16:33:06.338Z,18.4
2022-09-13T16:34:08.960Z,5.8
2022-09-13T16:36:11.047Z,1.5
2022-09-13T16:38:13.114Z,6.5
2022-09-13T16:40:15.215Z,6.3
2022-09-13T16:44:22.538Z,12.8
2022-09-13T16:46:24.711Z,4.7
2022-09-13T16:48:26.722Z,13
2022-09-13T16:50:32.023Z,34
2022-09-13T16:56:38.275Z,12.1
2022-09-13T16:58:40.364Z,8.5
2022-09-13T17:00:42.465Z,7.6
2022-09-13T17:02:44.775Z,4.5
2022-09-13T17:04:46.702Z,3.9
2022-09-13T17:06:48.813Z,3.2
2022-09-13T17:08:50.973Z,1.5
2022-09-13T17:10:56.183Z,3.8
2022-09-13T17:12:58.291Z,3.4
2022-09-13T17:15:00.421Z,2.2
2022-09-13T17:17:02.501Z,2.3
2022-09-13T17:19:04.629Z,2.3
2022-09-13T17:21:06.740Z,1.9
2022-09-13T17:23:08.858Z,3
2022-09-13T17:25:14.117Z,2.6
2022-09-13T17:27:16.243Z,1.3
2022-09-13T17:29:18.351Z,1.3
2022-09-13T17:30:20.968Z,1.5
2022-09-13T17:32:23.095Z,1.6
2022-09-13T17:34:25.205Z,1.4
2022-09-13T17:36:27.323Z,1.4
2022-09-13T17:38:32.604Z,1.6
2022-09-13T17:40:34.755Z,2.2
2022-09-13T17:42:36.829Z,2.1
2022-09-13T17:44:38.956Z,1.8
2022-09-13T17:46:41.132Z,2.1
2022-09-13T17:48:43.207Z,3.5
2022-09-13T17:50:45.305Z,2
2022-09-13T17:52:50.601Z,4.7
2022-09-13T17:54:52.698Z,2.3
2022-09-13T17:56:54.907Z,1.6
2022-09-13T17:58:56.955Z,2.9
2022-09-13T18:00:59.076Z,2.4
2022-09-13T18:07:08.574Z,1.3
2022-09-13T18:09:10.715Z,1
2022-09-13T18:15:17.083Z,2.2
2022-09-13T18:19:39.164Z,2
2022-09-13T18:21:26.590Z,2
2022-09-13T18:26:33.462Z,1.4
2022-09-13T18:28:35.579Z,1.2
2022-09-13T18:30:37.701Z,0.9
2022-09-13T18:32:39.824Z,1.6
2022-09-13T18:34:45.112Z,1.2
2022-09-13T18:36:47.237Z,2.3
2022-09-13T18:38:49.354Z,1.2
2022-09-13T18:40:51.466Z,1.2
2022-09-13T18:42:53.591Z,3.5
2022-09-13T18:44:55.709Z,1.6
2022-09-13T18:46:57.840Z,3.9
2022-09-13T18:51:05.208Z,6.7
2022-09-13T18:53:07.362Z,2.5
2022-09-13T19:03:21.307Z,3.3
2022-09-13T19:05:23.248Z,2
2022-09-13T19:09:27.500Z,2.2
2022-09-13T19:11:45.880Z,0.8
2022-09-13T19:13:31.751Z,1.7
2022-09-13T19:15:33.957Z,3.1
2022-09-13T19:17:39.149Z,3.6
2022-09-13T19:19:41.259Z,1.3
2022-09-13T19:21:43.375Z,1.6
2022-09-13T19:26:14.177Z,1.5
2022-09-13T19:28:16.292Z,1.3
2022-09-13T19:30:21.562Z,1.2
2022-09-13T19:32:23.707Z,1.5
2022-09-13T19:34:25.839Z,1.3
2022-09-13T19:36:30.840Z,1.2
2022-09-13T19:38:30.079Z,1.9
2022-09-13T19:40:32.252Z,1.1
2022-09-13T19:42:34.331Z,0.8
2022-09-13T19:44:39.605Z,1.4
2022-09-13T19:46:41.992Z,0.9
2022-09-13T19:48:43.909Z,1.3
2022-09-13T19:50:46.018Z,2.5
2022-09-13T19:52:48.121Z,1.4
2022-09-13T19:54:50.259Z,2.1
2022-09-13T19:56:52.369Z,1.3
2022-09-13T19:58:57.667Z,1.4
2022-09-13T20:00:59.832Z,0.8
2022-09-13T20:03:01.914Z,1.1
2022-09-13T20:05:04.162Z,0.9
2022-09-13T20:07:06.155Z,1.1
2022-09-13T20:09:08.257Z,1.2
2022-09-13T20:11:10.400Z,1.2
2022-09-13T20:13:15.670Z,1.2
2022-09-13T20:15:17.791Z,2.1
2022-09-13T20:17:19.909Z,1.1
2022-09-13T20:18:22.548Z,0.9
2022-09-13T20:20:24.672Z,1.6
2022-09-13T20:22:26.825Z,1.3
2022-09-13T20:24:28.943Z,1.1
2022-09-13T20:26:34.212Z,1.7
2022-09-13T20:28:36.337Z,1.2
2022-09-13T20:30:38.497Z,2.1
2022-09-13T20:32:40.575Z,1.8
2022-09-13T20:34:42.716Z,1.3
2022-09-13T20:36:44.820Z,1.1
2022-09-13T20:38:46.939Z,1.4
2022-09-13T20:40:52.212Z,1.5
2022-09-13T20:42:54.331Z,1.9
2022-09-13T20:44:56.435Z,1.6
2022-09-13T20:46:58.566Z,1.8
2022-09-13T20:49:00.691Z,1.4
2022-09-13T20:51:02.809Z,2
2022-09-13T20:53:04.919Z,2.6
2022-09-13T20:55:10.188Z,1.5
2022-09-13T20:57:12.317Z,1.5
2022-09-13T20:59:14.447Z,33.8
2022-09-13T21:01:16.606Z,4.2
2022-09-13T21:03:18.672Z,1.9
2022-09-13T21:05:20.809Z,2.2
2022-09-13T21:07:22.926Z,1.5
2022-09-13T21:09:28.198Z,2.3
2022-09-13T21:11:30.323Z,1.5
2022-09-13T21:13:32.420Z,1.6
2022-09-13T21:14:35.120Z,1.3
2022-09-13T21:16:37.277Z,2.7
2022-09-13T21:18:39.386Z,2.2
2022-09-13T21:20:41.560Z,2.6
2022-09-13T21:22:46.797Z,1.7
2022-09-13T21:24:48.936Z,1.6
2022-09-13T21:26:51.066Z,1.7
2022-09-13T21:28:53.184Z,1.5
2022-09-13T21:30:55.429Z,1.8
2022-09-13T21:35:01.107Z,2.3
2022-09-13T21:41:10.595Z,1.6
2022-09-13T21:43:12.709Z,2.4
2022-09-13T21:45:14.842Z,2.8
2022-09-13T21:47:16.953Z,2.4
2022-09-13T21:49:19.071Z,2.8
2022-09-13T21:51:24.351Z,3
2022-09-13T21:53:26.470Z,2.2
2022-09-13T21:55:28.600Z,2.8
2022-09-13T21:57:30.729Z,2.1
2022-09-13T21:59:32.852Z,2.7
2022-09-13T22:01:35.042Z,2.5
2022-09-13T22:03:37.107Z,3
2022-09-13T22:07:44.521Z,1.9
2022-09-13T22:10:49.286Z,3.2
2022-09-13T22:12:51.391Z,2.7
2022-09-13T22:14:53.526Z,2.3
2022-09-13T22:16:55.769Z,2
2022-09-13T22:19:04.276Z,3.2
2022-09-13T22:25:07.256Z,3
2022-09-13T22:27:09.380Z,2.9
2022-09-13T22:29:11.516Z,4.1
2022-09-13T22:31:13.693Z,4.2
2022-09-13T22:33:18.896Z,3.2
2022-09-13T22:35:21.003Z,3.2
2022-09-13T22:37:23.150Z,2.9
2022-09-13T22:51:41.117Z,3.4
2022-09-13T22:53:43.238Z,2.5
2022-09-13T22:59:49.585Z,4.3
2022-09-13T23:01:54.848Z,2.7
2022-09-13T23:03:57.119Z,2.8
2022-09-13T23:05:59.170Z,2.6
2022-09-13T23:08:27.998Z,3.1
2022-09-13T23:10:30.173Z,2.7
2022-09-13T23:12:32.245Z,3
2022-09-13T23:14:37.513Z,3.6
2022-09-13T23:16:39.779Z,2.8
2022-09-13T23:18:41.755Z,2.7
2022-09-13T23:20:43.853Z,3.3
2022-09-13T23:22:45.984Z,3.3
2022-09-13T23:30:57.797Z,3.1
2022-09-13T23:33:00.008Z,3.7
2022-09-13T23:35:02.124Z,3.5
2022-09-13T23:37:04.248Z,3
2022-09-13T23:39:06.354Z,3.5
2022-09-13T23:41:08.481Z,3
2022-09-13T23:43:13.969Z,3.6
2022-09-13T23:49:20.431Z,3.4
2022-09-13T23:51:22.647Z,3.2
2022-09-13T23:53:24.881Z,3.5
2022-09-13T23:55:27.113Z,3.1
2022-09-13T23:57:32.481Z,3.8
2022-09-13T23:59:34.590Z,2.9
